WetterOnline ( https://www.wetteronline.de )

Wetter aktuell Marienberg

Aktuelles Wetter: Marienberg (640m)

6-stündlich | Neueste Meldungen
Ortszeit Temperatur Wetter
So, 19.05. 8:00 12.4° C wolkig
So, 19.05. 2:00 10.1° C bewölkt
Sa, 18.05. 20:00 12.8° C leichter Regen
Sa, 18.05. 14:00 12.6° C Regen
Sa, 18.05. 8:00 10.1° C Sprühregen
Sa, 18.05. 2:00 9.4° C bedeckt
Fr, 17.05. 20:00 10.3° C bewölkt
Fr, 17.05. 14:00 10.3° C Sprühregen
Ortszeit Temperatur Wetter
So, 19.05. 12:30 15.7° C wolkig
So, 19.05. 12:20 15.7° C wolkig
So, 19.05. 12:10 15.9° C leicht bewölkt
So, 19.05. 12:00 15.2° C bewölkt
So, 19.05. 11:50 15.2° C bewölkt
So, 19.05. 11:40 14.4° C bewölkt
So, 19.05. 11:30 15.2° C bedeckt
So, 19.05. 11:00 13.7° C bewölkt
So, 19.05. 10:30 13.0° C bewölkt
So, 19.05. 10:00 12.4° C wolkig
So, 19.05. 9:30 12.4° C wolkig
Ortszeit Relative Feuchte Sichtweite
So, 19.05. 8:00 82% 55 km
So, 19.05. 2:00 92% 60 km
Sa, 18.05. 20:00 85% 35 km
Sa, 18.05. 14:00 80% >70 km
Sa, 18.05. 8:00 90% 8 km
Sa, 18.05. 2:00 92% 55 km
Fr, 17.05. 20:00 89% >70 km
Fr, 17.05. 14:00 89% 26 km
Ortszeit Relative Feuchte Sichtweite
So, 19.05. 12:30 63% 65 km
So, 19.05. 12:20 63% -
So, 19.05. 12:10 62% -
So, 19.05. 12:00 69% 60 km
So, 19.05. 11:50 69% -
So, 19.05. 11:40 72% -
So, 19.05. 11:30 74% 65 km
So, 19.05. 11:00 77% 60 km
So, 19.05. 10:30 81% >70 km
So, 19.05. 10:00 84% >70 km
So, 19.05. 9:30 83% >70 km
Ortszeit Niederschlagsmenge Niederschlagsart
So, 19.05. 8:00 0.7 l/m2 in 12 Std. Regen
So, 19.05. 2:00 0.6 l/m2 in 6 Std. Regen
Sa, 18.05. 20:00 3 l/m2 in 12 Std. Regen
Sa, 18.05. 14:00 2 l/m2 in 6 Std. Regen
Sa, 18.05. 8:00 0.1 l/m2 in 12 Std. Regen
Sa, 18.05. 2:00 0.1 l/m2 in 6 Std. Regen
Fr, 17.05. 20:00 1 l/m2 in 12 Std. Regen
Fr, 17.05. 14:00 1 l/m2 in 6 Std. Regen
Ortszeit Niederschlagsmenge Niederschlagsart
So, 19.05. 12:30 0.0 l/m2 in 30 Min -
So, 19.05. 12:20 keine Meldung -
So, 19.05. 12:10 keine Meldung -
So, 19.05. 12:00 0.0 l/m2 in 1 Std. -
So, 19.05. 11:50 keine Meldung -
So, 19.05. 11:40 keine Meldung -
So, 19.05. 11:30 0.0 l/m2 in 30 Min -
So, 19.05. 11:00 0.0 l/m2 in 1 Std. Regen
So, 19.05. 10:30 0.0 l/m2 in 30 Min -
So, 19.05. 10:00 <0.05 l/m2 in 1 Std. Regen
So, 19.05. 9:30 <0.05 l/m2 in 30 Min Schneeregen
Ortszeit Stärke Spitze Richtung
km/h Bft. km/h Grad Sektor
So, 19.05. 8:00 11 2 22 230° SW
So, 19.05. 2:00 7 2 18 230° SW
Sa, 18.05. 20:00 7 2 18 210° SW
Sa, 18.05. 14:00 7 2 14 280° W
Sa, 18.05. 8:00 4 1 11 170° S
Sa, 18.05. 2:00 2 1 28 160° S
Fr, 17.05. 20:00 14 3 47 120° SO
Fr, 17.05. 14:00 14 3 65 100° O
Ortszeit Stärke Spitze Richtung
km/h Bft. km/h Grad Sektor
So, 19.05. 12:30 11 2 25 230° SW
So, 19.05. 12:20 11 2 - 230° SW
So, 19.05. 12:10 13 3 - 230° SW
So, 19.05. 12:00 9 2 20 240° SW
So, 19.05. 11:50 9 2 - 240° SW
So, 19.05. 11:40 9 2 - 250° W
So, 19.05. 11:30 7 2 22 240° SW
So, 19.05. 11:00 9 2 22 250° W
So, 19.05. 10:30 11 2 19 230° SW
So, 19.05. 10:00 11 2 22 240° SW
So, 19.05. 9:30 9 2 19 250° W
Ortszeit Untergrenze Bedeckung Gattung
total tief tief mittel hoch
So, 19.05. 8:00 2100 m 8/8 1/8 - - -
So, 19.05. 2:00 1800 m 8/8 5/8 - - -
Sa, 18.05. 20:00 720 m 8/8 8/8 - - -
Sa, 18.05. 14:00 390 m 8/8 8/8 - - -
Sa, 18.05. 8:00 540 m 8/8 8/8 - - -
Sa, 18.05. 2:00 1290 m 8/8 8/8 - - -
Fr, 17.05. 20:00 1800 m 7/8 7/8 - - -
Fr, 17.05. 14:00 330 m 7/8 7/8 - - -
Ortszeit Bedeckungsgrad in Achtel und Wolkenuntergrenze
So, 19.05. 12:30 4(900m) 5(1200m) 5(1440m)
So, 19.05. 12:20 4(900m) 5(1200m) 5(1440m)
So, 19.05. 12:10 4
So, 19.05. 12:00 1(660m) 3(1200m) 7(1800m)
So, 19.05. 11:50 1(660m) 3(1200m) 7(1800m)
So, 19.05. 11:40 7
So, 19.05. 11:30 4(600m) 7(1020m) 8(2400m)
So, 19.05. 11:00 1(450m) 3(600m) 7(2100m)
So, 19.05. 10:30 5(2100m) 7(2700m) 7(4200m)
So, 19.05. 10:00 1(390m) 4(1500m) 7(3000m)
So, 19.05. 9:30 2(390m) 5(2100m) 7(3900m)
Ortszeit Luftdruck NN (hPa) Tendenz (hPa in 3 Std.)
So, 19.05. 8:00 1011 + 0,8
So, 19.05. 2:00 1011 + 0,2
Sa, 18.05. 20:00 1010 0,0
Sa, 18.05. 14:00 1010 + 0,3
Sa, 18.05. 8:00 1009 + 0,3
Sa, 18.05. 2:00 1010 - 0,2
Fr, 17.05. 20:00 1009 + 0,2
Fr, 17.05. 14:00 1009 + 0,5
Ortszeit Luftdruck NN (hPa) Tendenz (hPa in 3 Std.)
So, 19.05. 12:30 1010 - 0,1
So, 19.05. 12:20 1010 keine Meldung
So, 19.05. 12:10 1010 keine Meldung
So, 19.05. 12:00 1011 + 0,4
So, 19.05. 11:50 1011 keine Meldung
So, 19.05. 11:40 1011 keine Meldung
So, 19.05. 11:30 1010 + 0,4
So, 19.05. 11:00 1011 + 0,5
So, 19.05. 10:30 1011 + 0,5
So, 19.05. 10:00 1011 + 0,5
So, 19.05. 9:30 1011 + 0,6
Ortszeit Schneehöhe (cm)
So, 19.05. 8:00 0
So, 19.05. 2:00 0
Sa, 18.05. 20:00 0
Sa, 18.05. 14:00 0
Sa, 18.05. 8:00 0
Sa, 18.05. 2:00 0
Fr, 17.05. 20:00 0
Fr, 17.05. 14:00 0
Ortszeit Schneehöhe (cm)
So, 19.05. 12:30 0
So, 19.05. 12:20 0
So, 19.05. 12:10 -
So, 19.05. 12:00 0
So, 19.05. 11:50 0
So, 19.05. 11:40 -
So, 19.05. 11:30 0
So, 19.05. 11:00 0
So, 19.05. 10:30 0
So, 19.05. 10:00 0
So, 19.05. 9:30 0
Link zu dieser Seite / Seite empfehlen

Das Wetter in ...